Time;durP1;ratioP1;P1;durP2;ratioP2;P2;SDS_P1;SDS_P2;PMS_P1;PMS_P2;Temp;Humidity;BMP_temperature;BMP_pressure;BME280_temperature;BME280_humidity;BME280_pressure;Samples;Min_cycle;Max_cycle;Signal;HPM_P1;HPM_P2
2022/07/15 00:00:32;;;;;;;9.80;3.00;;;25.40;84.70;;;;;;5097159;28;20089;-73
2022/07/15 00:02:58;;;;;;;9.02;3.15;;;25.40;84.20;;;;;;5081113;28;20107;-73
2022/07/15 00:05:25;;;;;;;6.97;2.88;;;25.30;83.20;;;;;;5083238;28;20028;-73
2022/07/15 00:07:51;;;;;;;7.70;3.08;;;25.30;83.00;;;;;;5083216;28;20028;-73
2022/07/15 00:10:21;;;;;;;4.60;2.67;;;25.30;82.70;;;;;;5084568;28;20117;-74
2022/07/15 00:13:01;;;;;;;6.00;3.23;;;25.40;83.40;;;;;;5095763;28;20042;-73
2022/07/15 00:15:31;;;;;;;6.80;3.15;;;25.40;82.80;;;;;;5090507;28;20028;-73
2022/07/15 00:18:01;;;;;;;5.28;3.42;;;25.40;82.40;;;;;;5098463;28;20016;-73
2022/07/15 00:20:33;;;;;;;6.23;3.07;;;25.50;81.50;;;;;;5093991;28;20031;-73
2022/07/15 00:23:02;;;;;;;4.00;3.00;;;25.60;82.70;;;;;;5094774;28;20024;-73
2022/07/15 00:25:29;;;;;;;4.40;3.15;;;25.60;81.90;;;;;;5097023;28;20030;-73
2022/07/15 00:28:03;;;;;;;9.10;3.25;;;25.50;82.40;;;;;;5095058;28;20028;-73
2022/07/15 00:30:37;;;;;;;5.70;2.90;;;25.50;83.20;;;;;;5097490;28;20036;-73
2022/07/15 00:33:03;;;;;;;8.27;3.28;;;25.40;82.40;;;;;;5082583;28;20028;-73
2022/07/15 00:35:31;;;;;;;7.10;3.40;;;25.40;83.30;;;;;;5079589;28;20021;-73
2022/07/15 00:37:57;;;;;;;5.95;3.17;;;25.30;83.70;;;;;;5083053;28;20028;-72
2022/07/15 00:40:23;;;;;;;4.47;2.90;;;25.30;83.90;;;;;;5081065;28;20054;-73
2022/07/15 00:42:49;;;;;;;6.05;3.30;;;25.30;82.30;;;;;;5086473;28;20076;-73
2022/07/15 00:45:25;;;;;;;7.35;3.58;;;25.20;83.10;;;;;;5084585;28;20023;-73
2022/07/15 00:47:54;;;;;;;8.02;3.00;;;25.20;82.70;;;;;;5089856;28;20067;-73
2022/07/15 00:50:22;;;;;;;9.15;3.92;;;25.20;83.60;;;;;;5086656;28;20485;-73
2022/07/15 00:53:19;;;;;;;5.43;3.38;;;25.30;82.90;;;;;;5091243;28;20495;-73
2022/07/15 00:55:46;;;;;;;4.85;3.30;;;25.30;82.10;;;;;;5089804;28;20531;-73
2022/07/15 00:58:20;;;;;;;6.78;2.97;;;25.40;82.90;;;;;;5095848;28;20019;-73
2022/07/15 01:00:48;;;;;;;5.47;3.88;;;25.40;82.40;;;;;;5093794;28;20380;-73
2022/07/15 01:03:15;;;;;;;4.97;3.72;;;25.40;82.90;;;;;;5097710;28;20036;-72
2022/07/15 01:05:41;;;;;;;6.95;3.33;;;25.30;82.60;;;;;;5092112;28;20493;-73
2022/07/15 01:08:08;;;;;;;4.68;3.15;;;25.30;82.50;;;;;;5078191;28;20500;-72
2022/07/15 01:10:35;;;;;;;15.40;3.78;;;25.30;82.50;;;;;;5081404;28;20024;-73
2022/07/15 01:13:04;;;;;;;5.63;4.03;;;25.30;82.80;;;;;;5092741;28;20009;-73
2022/07/15 01:15:32;;;;;;;5.53;3.40;;;25.30;82.70;;;;;;5090658;28;20028;-73
2022/07/15 01:18:00;;;;;;;6.70;4.10;;;25.30;82.90;;;;;;5088769;28;20016;-72
2022/07/15 01:20:26;;;;;;;6.38;4.32;;;25.30;83.30;;;;;;5091523;28;20488;-72
2022/07/15 01:22:52;;;;;;;7.32;4.65;;;25.20;83.30;;;;;;5092452;28;20031;-72
2022/07/15 01:25:18;;;;;;;9.18;4.43;;;25.20;83.70;;;;;;5093075;28;20020;-72
2022/07/15 01:27:43;;;;;;;6.05;4.10;;;25.10;84.30;;;;;;5096435;28;20476;-73
2022/07/15 01:30:10;;;;;;;9.57;4.40;;;25.10;85.00;;;;;;5094431;28;20059;-73
2022/07/15 01:32:37;;;;;;;6.43;4.22;;;25.00;85.60;;;;;;5098295;28;20023;-74
2022/07/15 01:35:03;;;;;;;8.07;5.03;;;24.90;85.80;;;;;;5081093;28;20071;-74
2022/07/15 01:37:29;;;;;;;11.00;4.80;;;24.80;85.90;;;;;;5080102;28;20066;-73
2022/07/15 01:39:55;;;;;;;7.25;5.35;;;24.80;86.60;;;;;;5085545;28;20024;-73
2022/07/15 01:42:21;;;;;;;6.82;5.35;;;24.70;86.80;;;;;;5082390;28;20059;-74
2022/07/15 01:44:47;;;;;;;8.07;5.72;;;24.70;87.10;;;;;;5087451;28;20035;-74
2022/07/15 01:47:13;;;;;;;11.98;6.90;;;24.70;88.40;;;;;;5083492;28;20028;-74
2022/07/15 01:49:39;;;;;;;11.10;7.13;;;24.60;88.70;;;;;;5089882;28;20066;-74
2022/07/15 01:52:08;;;;;;;9.48;6.18;;;24.50;88.80;;;;;;5085210;28;20113;-74
2022/07/15 01:54:36;;;;;;;11.37;6.33;;;24.50;88.90;;;;;;5091314;28;20016;-73
2022/07/15 01:57:01;;;;;;;8.82;6.60;;;24.40;89.90;;;;;;5088532;28;20039;-74
2022/07/15 01:59:27;;;;;;;11.88;7.28;;;24.40;90.00;;;;;;5091665;28;20028;-73
2022/07/15 02:01:57;;;;;;;11.38;7.50;;;24.40;90.10;;;;;;5093383;28;20040;-73
2022/07/15 02:04:23;;;;;;;11.38;8.73;;;24.40;90.10;;;;;;5094044;28;20118;-73
2022/07/15 02:06:49;;;;;;;13.80;9.02;;;24.40;90.50;;;;;;5095428;28;20028;-73
2022/07/15 02:09:16;;;;;;;14.75;10.00;;;24.40;90.60;;;;;;5091131;28;20069;-74
2022/07/15 02:11:43;;;;;;;11.73;9.25;;;24.40;90.80;;;;;;5118273;27;20032;-73
2022/07/15 02:14:08;;;;;;;19.77;9.70;;;24.40;90.90;;;;;;5089215;28;20016;-73
2022/07/15 02:16:35;;;;;;;12.65;9.30;;;24.40;90.90;;;;;;5086149;28;20531;-73
2022/07/15 02:19:01;;;;;;;12.20;10.02;;;24.30;91.20;;;;;;5091787;28;20149;-73
2022/07/15 02:21:27;;;;;;;13.75;10.48;;;24.30;91.40;;;;;;5087443;28;20039;-73
2022/07/15 02:23:54;;;;;;;16.15;10.65;;;24.30;91.60;;;;;;5093625;28;20020;-75
2022/07/15 02:26:20;;;;;;;14.02;9.90;;;24.30;91.70;;;;;;5091193;28;20024;-73
2022/07/15 02:28:46;;;;;;;14.10;9.02;;;24.30;91.90;;;;;;5096027;28;20051;-73
2022/07/15 02:31:12;;;;;;;18.67;9.30;;;24.20;92.10;;;;;;5095851;28;20492;-73
2022/07/15 02:33:39;;;;;;;14.30;9.70;;;24.20;92.20;;;;;;5077979;28;20055;-73
2022/07/15 02:36:06;;;;;;;17.17;9.55;;;24.20;92.30;;;;;;5079736;28;20044;-73
2022/07/15 02:38:31;;;;;;;17.70;10.63;;;24.10;92.80;;;;;;5079150;28;20028;-73
2022/07/15 02:40:57;;;;;;;13.90;10.18;;;24.10;92.50;;;;;;5080621;28;20054;-74
2022/07/15 02:43:23;;;;;;;12.63;10.80;;;24.10;92.70;;;;;;5082915;28;20377;-73
2022/07/15 02:45:49;;;;;;;13.35;10.05;;;24.10;92.90;;;;;;5082151;28;20025;-74
2022/07/15 02:48:15;;;;;;;14.65;10.52;;;24.10;93.10;;;;;;5087556;28;20024;-73
2022/07/15 02:50:41;;;;;;;17.23;11.43;;;24.00;93.20;;;;;;5084202;28;20505;-73
2022/07/15 02:53:08;;;;;;;16.33;11.65;;;24.00;93.40;;;;;;5091718;28;20047;-74
2022/07/15 02:55:34;;;;;;;16.85;12.00;;;23.90;93.40;;;;;;5088268;28;20021;-74
2022/07/15 02:58:00;;;;;;;20.48;11.88;;;23.90;93.60;;;;;;5092849;28;20027;-73
2022/07/15 03:00:26;;;;;;;15.25;12.40;;;23.90;93.80;;;;;;5091361;28;20032;-74
2022/07/15 03:02:52;;;;;;;15.98;11.40;;;23.90;94.00;;;;;;5093816;28;20028;-73
2022/07/15 03:05:18;;;;;;;17.27;12.63;;;23.90;94.20;;;;;;5094979;28;20024;-74
2022/07/15 03:07:44;;;;;;;13.50;12.07;;;23.80;94.20;;;;;;5094339;28;20384;-74
2022/07/15 03:10:11;;;;;;;17.52;12.52;;;23.80;94.50;;;;;;5085079;28;20032;-74
2022/07/15 03:12:37;;;;;;;17.90;12.27;;;23.80;94.70;;;;;;5088192;28;20480;-74
2022/07/15 03:15:04;;;;;;;19.10;12.75;;;23.80;94.90;;;;;;5094259;28;20025;-73
2022/07/15 03:17:30;;;;;;;16.77;11.80;;;23.80;95.00;;;;;;5095259;28;20093;-74
2022/07/15 03:19:56;;;;;;;17.92;13.20;;;23.70;95.30;;;;;;5094438;28;20028;-73
2022/07/15 03:22:23;;;;;;;17.08;13.15;;;23.70;95.50;;;;;;5089982;28;20028;-74
2022/07/15 03:24:48;;;;;;;16.80;12.50;;;23.70;95.80;;;;;;5079123;28;20435;-73
2022/07/15 03:27:15;;;;;;;17.48;13.85;;;23.60;96.00;;;;;;5078999;28;20024;-74
2022/07/15 03:29:42;;;;;;;18.05;14.23;;;23.60;96.20;;;;;;5081685;28;20432;-74
2022/07/15 03:32:08;;;;;;;18.90;13.95;;;23.60;96.40;;;;;;5084324;28;20051;-74
2022/07/15 03:34:34;;;;;;;19.92;14.18;;;23.60;96.60;;;;;;5083121;28;20024;-74
2022/07/15 03:37:00;;;;;;;20.15;15.18;;;23.60;96.90;;;;;;5087974;28;20553;-75
2022/07/15 03:39:26;;;;;;;18.20;14.30;;;23.50;96.90;;;;;;5091193;28;20052;-74
2022/07/15 03:41:52;;;;;;;16.63;14.23;;;23.50;97.00;;;;;;5092797;28;20040;-75
2022/07/15 03:44:18;;;;;;;20.92;14.63;;;23.50;97.20;;;;;;5088543;28;20032;-74
2022/07/15 03:46:45;;;;;;;20.15;15.65;;;23.50;97.50;;;;;;5094470;28;20100;-75
2022/07/15 03:49:13;;;;;;;20.55;14.68;;;23.50;97.50;;;;;;5093121;28;20024;-74
2022/07/15 03:51:39;;;;;;;17.15;14.88;;;23.50;97.60;;;;;;5095272;28;20024;-75
2022/07/15 03:54:04;;;;;;;25.80;16.05;;;23.50;97.80;;;;;;5083297;28;20046;-75
2022/07/15 03:56:31;;;;;;;22.75;15.27;;;23.50;97.90;;;;;;5082166;28;20384;-75
2022/07/15 03:58:57;;;;;;;18.75;15.18;;;23.40;98.00;;;;;;5083892;28;20581;-75
2022/07/15 04:01:23;;;;;;;22.17;17.13;;;23.40;98.00;;;;;;5082811;28;20032;-75
2022/07/15 04:03:50;;;;;;;19.90;15.80;;;23.40;98.40;;;;;;5115705;28;20027;-74
2022/07/15 04:06:17;;;;;;;18.25;15.85;;;23.40;98.20;;;;;;5088235;28;20027;-74
2022/07/15 04:08:44;;;;;;;20.60;17.58;;;23.40;98.50;;;;;;5115613;28;20032;-75
2022/07/15 04:11:10;;;;;;;21.55;16.40;;;23.40;98.60;;;;;;5091271;28;20024;-74
2022/07/15 04:13:37;;;;;;;22.88;16.20;;;23.30;98.60;;;;;;5095011;28;20039;-74
2022/07/15 04:16:04;;;;;;;17.80;15.55;;;23.30;98.60;;;;;;5097092;28;20028;-75
2022/07/15 04:18:30;;;;;;;19.20;15.95;;;23.20;98.90;;;;;;5095254;28;20016;-75
2022/07/15 04:20:56;;;;;;;19.08;16.10;;;23.20;99.00;;;;;;5097703;28;20035;-74
2022/07/15 04:23:21;;;;;;;18.98;16.98;;;23.20;99.00;;;;;;5097535;28;20099;-75
2022/07/15 04:25:51;;;;;;;25.17;17.92;;;23.10;99.40;;;;;;5098485;28;20020;-75
2022/07/15 04:28:18;;;;;;;24.92;18.67;;;23.10;99.20;;;;;;5083145;28;20080;-75
2022/07/15 04:30:44;;;;;;;25.60;17.23;;;23.10;99.10;;;;;;5080937;28;20070;-75
2022/07/15 04:33:10;;;;;;;18.98;16.45;;;23.10;99.30;;;;;;5084461;28;20095;-74
2022/07/15 04:35:37;;;;;;;22.27;18.23;;;23.20;99.20;;;;;;5083003;28;20040;-75
2022/07/15 04:38:02;;;;;;;21.55;17.42;;;23.10;99.00;;;;;;5086717;28;20055;-74
2022/07/15 04:40:28;;;;;;;26.10;19.30;;;23.20;99.30;;;;;;5094537;28;20542;-75
2022/07/15 04:42:55;;;;;;;23.67;18.30;;;23.10;99.30;;;;;;5088972;28;20035;-75
2022/07/15 04:45:20;;;;;;;25.50;17.88;;;23.20;99.40;;;;;;5097911;28;20115;-75
2022/07/15 04:47:47;;;;;;;23.30;18.27;;;23.20;99.50;;;;;;5092787;28;20085;-75
2022/07/15 04:52:58;;;;;;;24.58;18.90;;;23.10;99.70;;;;;;5095433;28;20127;-75
2022/07/15 04:55:23;;;;;;;27.77;19.15;;;23.10;99.60;;;;;;5094796;28;20052;-75
2022/07/15 04:57:49;;;;;;;21.75;18.98;;;23.10;99.60;;;;;;5097235;28;20492;-75
2022/07/15 05:00:15;;;;;;;27.23;18.17;;;23.10;99.50;;;;;;5098293;28;20020;-75
2022/07/15 05:02:41;;;;;;;25.25;19.00;;;23.10;99.50;;;;;;5078455;28;20052;-74
2022/07/15 05:05:07;;;;;;;23.33;18.77;;;23.10;99.50;;;;;;5111292;28;20028;-76
2022/07/15 05:07:33;;;;;;;30.08;20.52;;;23.10;99.50;;;;;;5082985;28;20107;-74
2022/07/15 05:09:59;;;;;;;23.30;19.75;;;23.20;99.40;;;;;;5080102;28;20048;-74
2022/07/15 05:12:25;;;;;;;26.40;20.70;;;23.20;99.30;;;;;;5093851;28;20024;-74
2022/07/15 05:14:51;;;;;;;29.77;19.40;;;23.20;99.30;;;;;;5089278;28;20009;-75
2022/07/15 05:17:17;;;;;;;29.13;19.98;;;23.30;99.20;;;;;;5093297;28;20059;-75
2022/07/15 05:19:42;;;;;;;24.02;19.10;;;23.30;99.20;;;;;;5094396;28;20020;-74
2022/07/15 05:22:08;;;;;;;25.27;20.17;;;23.30;99.20;;;;;;5096949;28;20020;-74
2022/07/15 05:24:34;;;;;;;23.92;19.38;;;23.40;99.10;;;;;;5076942;28;20021;-74
2022/07/15 05:27:00;;;;;;;24.80;19.88;;;23.40;99.10;;;;;;5079307;28;20023;-74
2022/07/15 05:29:26;;;;;;;25.10;20.65;;;23.40;99.10;;;;;;5110873;28;20020;-75
2022/07/15 05:31:52;;;;;;;24.60;20.42;;;23.40;98.90;;;;;;5092634;28;20042;-75
2022/07/15 05:34:18;;;;;;;28.20;20.48;;;23.50;98.90;;;;;;5097301;28;20411;-74
2022/07/15 05:36:45;;;;;;;24.25;19.58;;;23.50;98.80;;;;;;5095871;28;20026;-74
2022/07/15 05:39:11;;;;;;;31.90;20.55;;;23.50;99.20;;;;;;5098039;28;20447;-74
2022/07/15 05:41:37;;;;;;;24.25;18.95;;;23.50;98.80;;;;;;5080006;28;20033;-74
2022/07/15 05:44:03;;;;;;;26.83;20.63;;;23.60;98.70;;;;;;5085335;28;20031;-75
2022/07/15 05:46:29;;;;;;;32.10;20.33;;;23.60;98.70;;;;;;5091405;28;20448;-75
2022/07/15 05:48:55;;;;;;;29.63;20.70;;;23.60;98.60;;;;;;5093612;28;20040;-75
2022/07/15 05:51:20;;;;;;;26.75;19.55;;;23.60;98.60;;;;;;5092646;28;20028;-75
2022/07/15 05:53:46;;;;;;;24.45;19.35;;;23.60;98.70;;;;;;5092813;28;20103;-75
2022/07/15 05:56:12;;;;;;;24.48;19.63;;;23.70;98.70;;;;;;5096662;28;20531;-75
2022/07/15 05:58:38;;;;;;;30.05;20.80;;;23.70;98.70;;;;;;5096144;28;20028;-74
2022/07/15 06:01:05;;;;;;;27.00;19.45;;;23.70;98.80;;;;;;5078766;28;20025;-75
2022/07/15 06:03:31;;;;;;;29.30;20.15;;;23.80;98.60;;;;;;5083897;28;20043;-75
2022/07/15 06:05:56;;;;;;;23.02;19.42;;;23.80;98.50;;;;;;5097884;28;20066;-75
2022/07/15 06:08:22;;;;;;;26.73;20.60;;;23.90;98.50;;;;;;5094810;28;20019;-75
2022/07/15 06:10:48;;;;;;;22.10;18.60;;;23.90;98.20;;;;;;5090017;28;20028;-74
2022/07/15 06:13:15;;;;;;;26.95;21.05;;;24.00;98.20;;;;;;5093972;28;20473;-75
2022/07/15 06:15:41;;;;;;;26.20;19.75;;;24.00;98.10;;;;;;5095540;28;20107;-75
2022/07/15 06:18:07;;;;;;;25.52;19.75;;;23.90;98.10;;;;;;5093806;28;20048;-74
2022/07/15 06:20:33;;;;;;;28.92;19.75;;;23.90;98.10;;;;;;5081459;28;20115;-75
2022/07/15 06:22:59;;;;;;;26.73;19.20;;;24.00;98.20;;;;;;5081718;28;20059;-74
2022/07/15 06:25:25;;;;;;;25.50;19.83;;;24.10;98.10;;;;;;5087568;28;20055;-74
2022/07/15 06:27:51;;;;;;;26.63;20.08;;;24.10;97.90;;;;;;5090094;28;20021;-75
2022/07/15 06:30:17;;;;;;;27.02;19.58;;;24.20;97.80;;;;;;5093411;28;20419;-74
2022/07/15 06:32:43;;;;;;;25.17;18.90;;;24.20;97.60;;;;;;5091777;28;20130;-74
2022/07/15 06:35:10;;;;;;;26.73;18.92;;;24.20;97.70;;;;;;5091202;28;20049;-74
2022/07/15 06:37:36;;;;;;;22.70;18.67;;;24.30;97.60;;;;;;5083256;28;20107;-74
2022/07/15 06:40:03;;;;;;;26.20;18.35;;;24.30;97.70;;;;;;5087582;28;20081;-75
2022/07/15 06:42:29;;;;;;;22.38;17.67;;;24.40;97.30;;;;;;5078262;28;20078;-75
2022/07/15 06:44:54;;;;;;;26.15;18.23;;;24.40;97.20;;;;;;5093522;28;20023;-74
2022/07/15 06:47:20;;;;;;;23.75;18.55;;;24.50;97.40;;;;;;5096321;28;20027;-74
2022/07/15 06:49:48;;;;;;;27.90;18.30;;;24.60;97.10;;;;;;5093565;28;20020;-75
2022/07/15 06:52:14;;;;;;;24.00;18.17;;;24.60;97.30;;;;;;5093116;28;20037;-74
2022/07/15 06:54:40;;;;;;;25.80;17.70;;;24.60;97.00;;;;;;5093189;28;20012;-74
2022/07/15 06:57:07;;;;;;;22.45;17.60;;;24.60;97.30;;;;;;5088762;28;20075;-74
2022/07/15 06:59:33;;;;;;;29.00;18.80;;;24.70;97.20;;;;;;5091896;28;20044;-74
2022/07/15 07:01:58;;;;;;;21.63;18.35;;;24.80;97.30;;;;;;5094915;28;20028;-74
2022/07/15 07:04:24;;;;;;;20.00;17.50;;;24.80;97.10;;;;;;5093233;28;20018;-74
2022/07/15 07:06:50;;;;;;;26.90;16.23;;;24.90;97.00;;;;;;5085053;28;20491;-73
2022/07/15 07:09:16;;;;;;;22.70;17.60;;;24.90;97.00;;;;;;5081684;28;20553;-74
2022/07/15 07:11:42;;;;;;;23.30;17.83;;;24.90;96.80;;;;;;5090496;28;20075;-74
2022/07/15 07:14:08;;;;;;;21.38;16.85;;;25.00;96.90;;;;;;5085356;28;20026;-74
2022/07/15 07:16:34;;;;;;;19.38;15.25;;;25.10;97.00;;;;;;5096761;28;20019;-74
2022/07/15 07:19:00;;;;;;;27.73;17.83;;;25.20;96.70;;;;;;5091105;28;20091;-74
2022/07/15 07:21:26;;;;;;;23.90;17.52;;;25.30;96.10;;;;;;5087119;28;20546;-74
2022/07/15 07:23:52;;;;;;;17.92;15.82;;;25.30;96.60;;;;;;5096402;28;20453;-74
2022/07/15 07:26:19;;;;;;;18.80;16.00;;;25.40;96.50;;;;;;5083643;28;20024;-75
2022/07/15 07:28:45;;;;;;;20.42;16.50;;;25.50;96.10;;;;;;5080182;28;20021;-74
2022/07/15 07:31:13;;;;;;;22.88;16.88;;;25.60;95.80;;;;;;5094754;28;20086;-73
2022/07/15 07:33:39;;;;;;;24.08;16.77;;;25.70;96.10;;;;;;5087804;28;20464;-75
2022/07/15 07:36:06;;;;;;;19.40;16.67;;;25.80;96.00;;;;;;5086654;28;20027;-75
2022/07/15 07:38:34;;;;;;;18.00;15.07;;;25.90;95.50;;;;;;5090432;28;20024;-75
2022/07/15 07:41:00;;;;;;;18.20;15.27;;;26.00;95.30;;;;;;5087559;28;20063;-74
2022/07/15 07:43:27;;;;;;;20.83;15.00;;;26.00;94.90;;;;;;5094024;28;20080;-75
2022/07/15 07:45:53;;;;;;;19.35;14.43;;;26.10;94.40;;;;;;5094913;28;20028;-74
2022/07/15 07:48:19;;;;;;;23.70;14.75;;;26.10;94.30;;;;;;5099625;28;20036;-74
2022/07/15 07:50:46;;;;;;;22.38;15.07;;;26.30;93.90;;;;;;5094038;28;20029;-74
2022/07/15 07:53:12;;;;;;;23.25;14.27;;;26.30;93.70;;;;;;5099220;28;20509;-74
2022/07/15 07:55:39;;;;;;;20.67;15.00;;;26.40;92.90;;;;;;5091458;28;20099;-75
2022/07/15 07:58:05;;;;;;;20.33;14.73;;;26.30;93.40;;;;;;5094056;28;20407;-74
2022/07/15 08:00:32;;;;;;;18.08;13.15;;;26.50;93.30;;;;;;5098388;28;20028;-74
2022/07/15 08:02:59;;;;;;;23.13;14.55;;;26.50;92.70;;;;;;5096026;28;20032;-74
2022/07/15 08:05:27;;;;;;;18.48;13.63;;;26.50;92.50;;;;;;5098439;28;20051;-74
2022/07/15 08:08:25;;;;;;;17.20;13.38;;;26.60;92.50;;;;;;5092784;28;20028;-74
2022/07/15 08:10:54;;;;;;;20.08;13.82;;;26.60;92.50;;;;;;5033558;28;20507;-75
2022/07/15 08:13:22;;;;;;;16.90;13.18;;;26.60;92.10;;;;;;5093214;28;20088;-73
2022/07/15 08:15:49;;;;;;;21.13;12.13;;;26.60;92.30;;;;;;5120411;27;20035;-72
2022/07/15 08:18:15;;;;;;;14.07;11.73;;;26.70;92.00;;;;;;5097518;28;20024;-73
2022/07/15 08:20:41;;;;;;;23.00;14.52;;;26.70;91.80;;;;;;5080507;28;20021;-74
2022/07/15 08:23:07;;;;;;;17.60;13.25;;;26.90;91.80;;;;;;5080791;28;20024;-73
2022/07/15 08:25:36;;;;;;;20.27;12.63;;;27.00;91.50;;;;;;5083351;28;20028;-73
2022/07/15 08:28:03;;;;;;;18.17;12.93;;;27.10;91.30;;;;;;5084905;28;20028;-71
2022/07/15 08:30:30;;;;;;;19.25;13.15;;;27.30;91.40;;;;;;5086873;28;20110;-73
2022/07/15 08:32:57;;;;;;;20.83;12.85;;;27.40;91.10;;;;;;5094244;28;20035;-71
2022/07/15 08:35:23;;;;;;;18.58;12.15;;;27.40;91.40;;;;;;5095714;28;20050;-72
2022/07/15 08:37:50;;;;;;;17.15;11.98;;;27.60;91.10;;;;;;5097010;28;20111;-75
2022/07/15 08:40:16;;;;;;;19.73;12.85;;;27.60;90.70;;;;;;5085171;28;20529;-73
2022/07/15 08:42:45;;;;;;;18.45;12.13;;;27.70;90.50;;;;;;5093235;28;20509;-72
2022/07/15 08:45:12;;;;;;;18.52;11.93;;;27.70;89.40;;;;;;5092111;28;20051;-73
2022/07/15 08:47:42;;;;;;;14.98;11.75;;;27.70;89.90;;;;;;5094274;28;20098;-73
2022/07/15 08:50:12;;;;;;;17.73;13.18;;;27.80;89.90;;;;;;5095029;28;20016;-72
2022/07/15 08:52:38;;;;;;;23.13;12.30;;;27.80;89.60;;;;;;5093224;28;20068;-72
2022/07/15 08:55:08;;;;;;;17.65;11.23;;;27.80;90.00;;;;;;5098095;28;20085;-72
2022/07/15 08:57:34;;;;;;;19.27;12.40;;;27.90;89.30;;;;;;5082191;28;20028;-72
2022/07/15 09:00:01;;;;;;;15.93;12.63;;;28.10;90.00;;;;;;5086392;28;20039;-72
2022/07/15 09:02:27;;;;;;;20.83;13.23;;;28.10;89.20;;;;;;5089479;28;20035;-71
2022/07/15 09:05:18;;;;;;;18.35;12.60;;;28.10;89.60;;;;;;5086946;28;20016;-72
2022/07/15 09:08:10;;;;;;;22.52;13.43;;;28.30;90.20;;;;;;5092738;28;20062;-72
2022/07/15 09:10:46;;;;;;;16.02;11.48;;;28.40;88.90;;;;;;5113108;27;20492;-71
2022/07/15 09:13:34;;;;;;;17.52;12.23;;;28.50;88.30;;;;;;5085149;28;20477;-71
2022/07/15 09:16:02;;;;;;;17.65;12.00;;;28.60;88.30;;;;;;5110669;27;20519;-72
2022/07/15 09:18:33;;;;;;;17.35;11.88;;;28.60;86.90;;;;;;5095328;28;20061;-72
2022/07/15 09:20:59;;;;;;;;;;;28.50;87.80;;;;;;5080929;28;20116;-72
2022/07/15 09:23:29;;;;;;;17.38;11.45;;;28.70;87.80;;;;;;5088328;28;19919;-72
2022/07/15 09:26:36;;;;;;;18.38;11.98;;;28.80;86.30;;;;;;5093298;28;20104;-73
2022/07/15 09:33:34;;;;;;;17.08;11.95;;;28.80;85.70;;;;;;5092520;28;20029;-75
2022/07/15 09:35:00;;;;;;;17.35;11.65;;;29.10;86.20;;;;;;5085097;28;20110;-75
2022/07/15 09:37:26;;;;;;;20.65;12.55;;;29.30;86.60;;;;;;5082347;28;20120;-75
2022/07/15 09:39:57;;;;;;;15.70;11.30;;;29.40;85.30;;;;;;5090373;28;20460;-76
2022/07/15 09:42:23;;;;;;;18.90;12.15;;;29.50;84.10;;;;;;5089631;28;20069;-75
2022/07/15 09:44:50;;;;;;;15.48;11.18;;;29.40;84.50;;;;;;5109891;28;20029;-76
2022/07/15 09:47:22;;;;;;;15.57;11.45;;;29.50;86.20;;;;;;5091744;28;20016;-77
2022/07/15 09:49:48;;;;;;;14.63;10.18;;;29.70;83.80;;;;;;5096186;28;20023;-76
2022/07/15 09:52:15;;;;;;;19.77;11.55;;;29.70;82.50;;;;;;5084098;28;20040;-75
2022/07/15 09:54:43;;;;;;;20.33;11.70;;;29.70;82.80;;;;;;5077244;28;20020;-76
2022/07/15 09:57:14;;;;;;;21.13;11.48;;;29.70;83.50;;;;;;5084476;28;20124;-75
2022/07/15 09:59:40;;;;;;;17.67;10.15;;;29.80;82.90;;;;;;5086894;28;20020;-76
2022/07/15 10:02:06;;;;;;;17.00;10.63;;;29.90;83.00;;;;;;5096429;28;20117;-76
2022/07/15 10:04:32;;;;;;;11.98;9.02;;;29.90;81.00;;;;;;5096314;28;20028;-76
2022/07/15 10:06:59;;;;;;;19.10;9.20;;;30.00;80.90;;;;;;5096079;28;20107;-76
2022/07/15 10:09:28;;;;;;;17.23;9.73;;;30.10;80.60;;;;;;5094917;28;20032;-76
2022/07/15 10:12:10;;;;;;;19.67;11.45;;;30.20;80.90;;;;;;5094625;28;20028;-75
2022/07/15 10:15:26;;;;;;;12.75;9.38;;;30.20;79.40;;;;;;5095003;28;20393;-74
2022/07/15 10:18:03;;;;;;;12.60;9.23;;;30.20;79.50;;;;;;5011221;28;20378;-76
2022/07/15 10:20:52;;;;;;;14.23;8.55;;;30.30;79.00;;;;;;5096238;28;20481;-76
2022/07/15 10:23:55;;;;;;;13.73;9.40;;;30.50;78.80;;;;;;5095400;28;20396;-76
2022/07/15 10:27:01;;;;;;;15.77;9.40;;;30.70;77.60;;;;;;5093670;28;20076;-75
2022/07/15 10:29:29;;;;;;;11.20;8.55;;;30.90;77.90;;;;;;5062071;28;20048;-76
2022/07/15 10:31:57;;;;;;;11.07;9.45;;;30.90;78.20;;;;;;5085152;28;20021;-76
2022/07/15 10:34:28;;;;;;;15.90;9.45;;;30.90;76.50;;;;;;5084199;28;20111;-75
2022/07/15 10:36:59;;;;;;;12.52;9.65;;;31.00;78.00;;;;;;5091705;28;20028;-78
2022/07/15 10:39:49;;;;;;;13.38;9.55;;;31.10;77.50;;;;;;5083400;28;20024;-76
2022/07/15 10:42:16;;;;;;;13.70;9.40;;;31.20;76.70;;;;;;5086812;28;20013;-78
2022/07/15 10:45:04;;;;;;;16.30;9.05;;;31.20;77.00;;;;;;5092884;28;20034;-75
2022/07/15 10:47:31;;;;;;;13.77;7.55;;;31.30;75.50;;;;;;5092775;28;20020;-76
2022/07/15 10:49:57;;;;;;;10.65;8.48;;;31.30;73.00;;;;;;5089539;28;20495;-76
2022/07/15 10:52:25;;;;;;;15.68;9.13;;;31.30;74.60;;;;;;5091286;28;20134;-76
2022/07/15 10:55:00;;;;;;;10.35;8.05;;;31.40;75.20;;;;;;5085444;28;20027;-76
2022/07/15 10:57:41;;;;;;;13.70;8.15;;;31.50;74.80;;;;;;5084332;28;20050;-79
2022/07/15 11:00:32;;;;;;;18.63;8.82;;;31.70;74.50;;;;;;5087807;28;20027;-75
2022/07/15 11:03:13;;;;;;;16.35;7.65;;;31.80;74.10;;;;;;5088674;28;20023;-76
2022/07/15 11:05:48;;;;;;;10.18;7.75;;;32.00;71.50;;;;;;5092414;28;20025;-76
2022/07/15 11:08:36;;;;;;;10.70;7.95;;;31.80;71.30;;;;;;5089364;28;20016;-78
2022/07/15 11:11:14;;;;;;;15.18;7.68;;;31.80;71.40;;;;;;5092916;28;20031;-79
2022/07/15 11:13:41;;;;;;;14.52;7.82;;;31.90;71.30;;;;;;5090693;28;20921;-78
2022/07/15 11:16:11;;;;;;;10.63;7.25;;;32.00;70.80;;;;;;5096242;28;20031;-79
2022/07/15 11:18:49;;;;;;;9.70;7.60;;;32.00;71.30;;;;;;5080366;28;20020;-77
2022/07/15 11:21:16;;;;;;;8.95;6.68;;;32.10;70.50;;;;;;5087393;28;20028;-78
2022/07/15 11:23:46;;;;;;;10.77;6.82;;;32.30;70.50;;;;;;5095015;28;20103;-81
2022/07/15 11:26:12;;;;;;;11.93;7.32;;;32.40;65.70;;;;;;5083657;28;20130;-77
2022/07/15 11:28:38;;;;;;;11.10;6.30;;;32.40;68.90;;;;;;5095533;28;20024;-77
2022/07/15 11:31:04;;;;;;;7.93;7.10;;;32.50;68.40;;;;;;5094261;28;20027;-77
2022/07/15 11:33:30;;;;;;;16.27;7.60;;;32.60;68.00;;;;;;5093799;28;20063;-77
2022/07/15 11:35:57;;;;;;;10.40;7.18;;;32.50;68.10;;;;;;5094088;28;20020;-77
2022/07/15 11:38:27;;;;;;;10.50;6.65;;;32.60;67.80;;;;;;5095049;28;20024;-77
2022/07/15 11:46:51;;;;;;;14.68;5.72;;;32.90;59.50;;;;;;5094457;28;20027;-77
2022/07/15 11:49:32;;;;;;;9.90;7.00;;;33.00;64.80;;;;;;5094038;28;20484;-76
2022/07/15 11:51:58;;;;;;;8.43;5.80;;;33.20;63.80;;;;;;5080142;28;20074;-76
2022/07/15 11:54:25;;;;;;;6.72;5.53;;;33.20;59.90;;;;;;5077728;28;20042;-78
2022/07/15 11:57:00;;;;;;;11.55;6.60;;;33.00;60.50;;;;;;5077190;28;20103;-77
2022/07/15 11:59:26;;;;;;;8.13;6.13;;;32.90;59.60;;;;;;5089102;28;20029;-77
2022/07/15 12:02:09;;;;;;;13.07;6.35;;;32.90;60.60;;;;;;5086914;28;20396;-77
2022/07/15 12:04:36;;;;;;;7.18;4.55;;;33.10;60.50;;;;;;5082591;28;20031;-77
2022/07/15 12:07:03;;;;;;;11.30;5.90;;;33.10;59.00;;;;;;5093987;28;20020;-78
2022/07/15 12:09:51;;;;;;;8.40;5.70;;;33.20;59.30;;;;;;5085724;28;20028;-77
2022/07/15 12:12:17;;;;;;;8.75;5.25;;;33.40;58.90;;;;;;5084999;28;20035;-77
2022/07/15 12:14:48;;;;;;;10.75;5.60;;;33.50;60.00;;;;;;5090457;28;20077;-77
2022/07/15 12:17:15;;;;;;;5.95;4.97;;;33.70;58.60;;;;;;5090583;28;20043;-77
2022/07/15 12:19:47;;;;;;;7.50;5.32;;;33.70;57.00;;;;;;5093849;28;20017;-78
2022/07/15 12:22:13;;;;;;;7.88;4.57;;;33.80;58.70;;;;;;5094899;28;20028;-77
2022/07/15 12:24:42;;;;;;;8.35;5.10;;;33.90;57.90;;;;;;5096750;28;20019;-77
2022/07/15 12:27:08;;;;;;;10.55;5.10;;;34.10;59.40;;;;;;5096729;28;20020;-78
2022/07/15 12:29:35;;;;;;;10.13;5.40;;;34.20;56.20;;;;;;5088742;28;20552;-78
2022/07/15 12:32:04;;;;;;;6.40;4.90;;;34.10;55.00;;;;;;5097733;28;20016;-77
2022/07/15 12:34:51;;;;;;;8.82;4.70;;;34.10;55.70;;;;;;5099056;28;20020;-78
2022/07/15 12:37:25;;;;;;;7.53;4.30;;;34.10;53.60;;;;;;5097448;28;20039;-77
2022/07/15 12:40:00;;;;;;;4.47;3.60;;;34.20;55.10;;;;;;5098777;28;20047;-77
2022/07/15 12:42:30;;;;;;;7.07;4.38;;;34.30;53.60;;;;;;5089256;28;20046;-77
2022/07/15 12:45:11;;;;;;;9.90;5.53;;;34.20;53.70;;;;;;5096148;28;20023;-78
2022/07/15 12:47:55;;;;;;;11.05;6.00;;;34.10;53.20;;;;;;5098774;28;20032;-78
2022/07/15 12:50:21;;;;;;;10.20;5.68;;;34.00;53.50;;;;;;5094187;28;20067;-77
2022/07/15 12:52:47;;;;;;;7.68;6.28;;;34.00;54.20;;;;;;5094157;28;20044;-78